sensor_id;sensor_type;location;lat;lon;timestamp;pressure;altitude;pressure_sealevel;temperature;humidity
28354;BME280;15603;50.878;8.036;2023-03-18T00:02:00;145356.78;;;8.86;100.00
28354;BME280;15603;50.878;8.036;2023-03-18T00:04:29;145418.69;;;9.12;100.00
28354;BME280;15603;50.878;8.036;2023-03-18T00:06:57;145368.91;;;8.91;100.00
28354;BME280;15603;50.878;8.036;2023-03-18T00:09:25;145355.53;;;8.85;100.00
28354;BME280;15603;50.878;8.036;2023-03-18T00:11:53;145342.19;;;8.79;100.00
28354;BME280;15603;50.878;8.036;2023-03-18T00:14:22;145357.97;;;8.86;100.00
28354;BME280;15603;50.878;8.036;2023-03-18T00:16:49;145339.78;;;8.78;100.00
28354;BME280;15603;50.878;8.036;2023-03-18T00:19:16;145327.63;;;8.73;100.00
28354;BME280;15603;50.878;8.036;2023-03-18T00:21:44;145339.78;;;8.78;100.00
28354;BME280;15603;50.878;8.036;2023-03-18T00:24:11;145332.47;;;8.75;100.00
28354;BME280;15603;50.878;8.036;2023-03-18T00:26:39;145332.47;;;8.75;100.00
28354;BME280;15603;50.878;8.036;2023-03-18T00:29:06;145336.13;;;8.77;100.00
28354;BME280;15603;50.878;8.036;2023-03-18T00:31:33;145372.53;;;8.92;100.00
28354;BME280;15603;50.878;8.036;2023-03-18T00:34:00;145342.19;;;8.79;100.00
28354;BME280;15603;50.878;8.036;2023-03-18T00:36:27;145388.34;;;8.99;100.00
28354;BME280;15603;50.878;8.036;2023-03-18T00:38:56;145418.69;;;9.12;100.00
28354;BME280;15603;50.878;8.036;2023-03-18T00:41:28;145389.56;;;8.99;100.00
28354;BME280;15603;50.878;8.036;2023-03-18T00:43:55;145390.75;;;9.00;100.00
28354;BME280;15603;50.878;8.036;2023-03-18T00:46:24;145405.31;;;9.06;100.00
28354;BME280;15603;50.878;8.036;2023-03-18T00:48:54;145402.91;;;9.05;100.00
28354;BME280;15603;50.878;8.036;2023-03-18T00:51:23;145412.63;;;9.09;100.00
28354;BME280;15603;50.878;8.036;2023-03-18T00:53:53;145422.31;;;9.13;100.00
28354;BME280;15603;50.878;8.036;2023-03-18T00:56:25;145427.19;;;9.15;100.00
28354;BME280;15603;50.878;8.036;2023-03-18T00:58:53;145456.34;;;9.28;100.00
28354;BME280;15603;50.878;8.036;2023-03-18T01:01:21;145449.03;;;9.24;100.00
28354;BME280;15603;50.878;8.036;2023-03-18T01:03:49;145393.22;;;9.01;100.00
28354;BME280;15603;50.878;8.036;2023-03-18T01:06:19;145371.34;;;8.92;100.00
28354;BME280;15603;50.878;8.036;2023-03-18T01:08:49;145446.59;;;9.23;100.00
28354;BME280;15603;50.878;8.036;2023-03-18T01:11:16;145441.75;;;9.21;100.00
28354;BME280;15603;50.878;8.036;2023-03-18T01:13:44;145425.97;;;9.15;100.00
28354;BME280;15603;50.878;8.036;2023-03-18T01:16:12;145451.44;;;9.26;100.00
28354;BME280;15603;50.878;8.036;2023-03-18T01:18:39;145478.16;;;9.37;100.00
28354;BME280;15603;50.878;8.036;2023-03-18T01:21:08;145486.69;;;9.40;100.00
28354;BME280;15603;50.878;8.036;2023-03-18T01:23:41;145462.41;;;9.30;100.00
28354;BME280;15603;50.878;8.036;2023-03-18T01:26:09;145490.34;;;9.42;100.00
28354;BME280;15603;50.878;8.036;2023-03-18T01:28:40;145484.28;;;9.39;100.00
28354;BME280;15603;50.878;8.036;2023-03-18T01:31:08;145506.09;;;9.49;100.00
28354;BME280;15603;50.878;8.036;2023-03-18T01:33:36;145491.53;;;9.42;100.00
28354;BME280;15603;50.878;8.036;2023-03-18T01:36:03;145458.75;;;9.29;100.00
28354;BME280;15603;50.878;8.036;2023-03-18T01:38:32;145473.31;;;9.35;100.00
28354;BME280;15603;50.878;8.036;2023-03-18T01:41:09;145517.06;;;9.53;100.00
28354;BME280;15603;50.878;8.036;2023-03-18T01:43:38;145529.22;;;9.58;100.00
28354;BME280;15603;50.878;8.036;2023-03-18T01:49:01;145552.28;;;9.68;100.00
28354;BME280;15603;50.878;8.036;2023-03-18T01:51:30;145558.34;;;9.71;100.00
28354;BME280;15603;50.878;8.036;2023-03-18T01:53:59;145560.75;;;9.72;100.00
28354;BME280;15603;50.878;8.036;2023-03-18T01:56:29;145549.84;;;9.67;100.00
28354;BME280;15603;50.878;8.036;2023-03-18T01:58:56;145565.66;;;9.74;100.00
28354;BME280;15603;50.878;8.036;2023-03-18T02:01:32;145553.50;;;9.69;100.00
28354;BME280;15603;50.878;8.036;2023-03-18T02:04:05;145581.44;;;9.80;100.00
28354;BME280;15603;50.878;8.036;2023-03-18T02:06:33;145564.41;;;9.73;100.00
28354;BME280;15603;50.878;8.036;2023-03-18T02:09:01;145623.94;;;9.98;100.00
28354;BME280;15603;50.878;8.036;2023-03-18T02:11:36;145614.22;;;9.94;100.00
28354;BME280;15603;50.878;8.036;2023-03-18T02:14:05;145575.38;;;9.78;100.00
28354;BME280;15603;50.878;8.036;2023-03-18T02:17:00;145587.50;;;9.83;100.00
28354;BME280;15603;50.878;8.036;2023-03-18T02:22:29;145555.91;;;9.70;100.00
28354;BME280;15603;50.878;8.036;2023-03-18T02:27:44;145538.94;;;9.62;100.00
28354;BME280;15603;50.878;8.036;2023-03-18T02:30:20;145577.78;;;9.79;100.00
28354;BME280;15603;50.878;8.036;2023-03-18T02:32:51;145575.38;;;9.78;100.00
28354;BME280;15603;50.878;8.036;2023-03-18T02:35:19;145569.28;;;9.75;100.00
28354;BME280;15603;50.878;8.036;2023-03-18T02:37:48;145575.38;;;9.78;100.00
28354;BME280;15603;50.878;8.036;2023-03-18T02:40:34;145553.50;;;9.69;100.00
28354;BME280;15603;50.878;8.036;2023-03-18T02:43:22;145555.91;;;9.70;100.00
28354;BME280;15603;50.878;8.036;2023-03-18T02:48:34;145565.66;;;9.74;100.00
28354;BME280;15603;50.878;8.036;2023-03-18T02:51:04;145580.22;;;9.80;100.00
28354;BME280;15603;50.878;8.036;2023-03-18T02:53:32;145507.34;;;9.49;100.00
28354;BME280;15603;50.878;8.036;2023-03-18T02:55:59;145577.78;;;9.79;100.00
28354;BME280;15603;50.878;8.036;2023-03-18T02:58:28;145570.50;;;9.76;100.00
28354;BME280;15603;50.878;8.036;2023-03-18T03:00:57;145572.91;;;9.77;100.00
28354;BME280;15603;50.878;8.036;2023-03-18T03:03:26;145554.69;;;9.69;100.00
28354;BME280;15603;50.878;8.036;2023-03-18T03:05:55;145551.06;;;9.68;100.00
28354;BME280;15603;50.878;8.036;2023-03-18T03:08:23;145478.16;;;9.37;100.00
28354;BME280;15603;50.878;8.036;2023-03-18T03:10:50;145560.75;;;9.72;100.00
28354;BME280;15603;50.878;8.036;2023-03-18T03:13:19;145543.78;;;9.65;100.00
28354;BME280;15603;50.878;8.036;2023-03-18T03:15:49;145475.78;;;9.36;100.00
28354;BME280;15603;50.878;8.036;2023-03-18T03:18:17;145506.09;;;9.49;100.00
28354;BME280;15603;50.878;8.036;2023-03-18T03:20:44;145524.31;;;9.56;100.00
28354;BME280;15603;50.878;8.036;2023-03-18T03:23:13;145497.63;;;9.45;100.00
28354;BME280;15603;50.878;8.036;2023-03-18T03:25:41;145439.34;;;9.20;100.00
28354;BME280;15603;50.878;8.036;2023-03-18T03:28:12;145441.75;;;9.21;100.00
28354;BME280;15603;50.878;8.036;2023-03-18T03:30:39;145402.91;;;9.05;100.00
28354;BME280;15603;50.878;8.036;2023-03-18T03:33:06;145402.91;;;9.05;100.00
28354;BME280;15603;50.878;8.036;2023-03-18T03:35:34;145385.91;;;8.98;100.00
28354;BME280;15603;50.878;8.036;2023-03-18T03:38:01;145361.63;;;8.88;100.00
28354;BME280;15603;50.878;8.036;2023-03-18T03:40:29;145308.22;;;8.65;100.00
28354;BME280;15603;50.878;8.036;2023-03-18T03:42:56;145389.56;;;8.99;100.00
28354;BME280;15603;50.878;8.036;2023-03-18T03:45:23;145371.34;;;8.92;100.00
28354;BME280;15603;50.878;8.036;2023-03-18T03:47:53;145383.50;;;8.97;100.00
28354;BME280;15603;50.878;8.036;2023-03-18T03:50:20;145410.16;;;9.08;100.00
28354;BME280;15603;50.878;8.036;2023-03-18T03:52:48;145413.81;;;9.10;100.00
28354;BME280;15603;50.878;8.036;2023-03-18T03:55:18;145408.97;;;9.08;100.00
28354;BME280;15603;50.878;8.036;2023-03-18T03:57:46;145388.34;;;8.99;100.00
28354;BME280;15603;50.878;8.036;2023-03-18T04:00:16;145385.91;;;8.98;100.00
28354;BME280;15603;50.878;8.036;2023-03-18T04:02:48;145379.84;;;8.95;100.00
28354;BME280;15603;50.878;8.036;2023-03-18T04:05:20;145364.03;;;8.89;100.00
28354;BME280;15603;50.878;8.036;2023-03-18T04:07:49;145245.06;;;8.38;100.00
28354;BME280;15603;50.878;8.036;2023-03-18T04:10:20;145327.63;;;8.73;100.00
28354;BME280;15603;50.878;8.036;2023-03-18T04:12:49;145308.22;;;8.65;100.00
28354;BME280;15603;50.878;8.036;2023-03-18T04:15:18;145219.59;;;8.28;100.00
28354;BME280;15603;50.878;8.036;2023-03-18T04:17:49;145317.91;;;8.69;100.00
28354;BME280;15603;50.878;8.036;2023-03-18T04:20:18;145313.06;;;8.67;100.00
28354;BME280;15603;50.878;8.036;2023-03-18T04:22:46;145298.50;;;8.61;100.00
28354;BME280;15603;50.878;8.036;2023-03-18T04:25:15;145279.09;;;8.53;100.00
28354;BME280;15603;50.878;8.036;2023-03-18T04:27:42;145271.81;;;8.50;100.00
28354;BME280;15603;50.878;8.036;2023-03-18T04:30:12;145181.94;;;8.12;100.00
28354;BME280;15603;50.878;8.036;2023-03-18T04:32:55;145254.78;;;8.42;100.00
28354;BME280;15603;50.878;8.036;2023-03-18T04:35:22;145279.09;;;8.53;100.00
28354;BME280;15603;50.878;8.036;2023-03-18T04:37:50;145256.03;;;8.43;100.00
28354;BME280;15603;50.878;8.036;2023-03-18T04:40:18;145245.06;;;8.38;100.00
28354;BME280;15603;50.878;8.036;2023-03-18T04:42:46;145274.25;;;8.51;100.00
28354;BME280;15603;50.878;8.036;2023-03-18T04:45:21;145230.50;;;8.32;100.00
28354;BME280;15603;50.878;8.036;2023-03-18T04:47:49;145208.66;;;8.23;100.00
28354;BME280;15603;50.878;8.036;2023-03-18T04:50:16;145178.28;;;8.10;100.00
28354;BME280;15603;50.878;8.036;2023-03-18T04:52:45;145174.69;;;8.09;100.00
28354;BME280;15603;50.878;8.036;2023-03-18T04:55:16;145184.41;;;8.13;100.00
28354;BME280;15603;50.878;8.036;2023-03-18T04:57:44;145229.28;;;8.32;100.00
28354;BME280;15603;50.878;8.036;2023-03-18T05:00:15;145179.53;;;8.11;100.00
28354;BME280;15603;50.878;8.036;2023-03-18T05:02:45;145139.50;;;7.94;100.00
28354;BME280;15603;50.878;8.036;2023-03-18T05:05:13;145099.47;;;7.77;100.00
28354;BME280;15603;50.878;8.036;2023-03-18T05:07:45;145058.22;;;7.59;100.00
28354;BME280;15603;50.878;8.036;2023-03-18T05:10:16;145040.03;;;7.52;100.00
28354;BME280;15603;50.878;8.036;2023-03-18T05:12:46;145043.69;;;7.53;100.00
28354;BME280;15603;50.878;8.036;2023-03-18T05:15:17;145032.72;;;7.48;100.00
28354;BME280;15603;50.878;8.036;2023-03-18T05:17:49;144997.59;;;7.34;100.00
28354;BME280;15603;50.878;8.036;2023-03-18T05:20:16;144968.47;;;7.21;100.00
28354;BME280;15603;50.878;8.036;2023-03-18T05:22:45;144966.06;;;7.20;100.00
28354;BME280;15603;50.878;8.036;2023-03-18T05:25:19;145035.19;;;7.50;100.00
28354;BME280;15603;50.878;8.036;2023-03-18T05:27:47;145025.47;;;7.45;100.00
28354;BME280;15603;50.878;8.036;2023-03-18T05:30:24;145055.81;;;7.58;100.00
28354;BME280;15603;50.878;8.036;2023-03-18T05:32:52;145024.28;;;7.45;100.00
28354;BME280;15603;50.878;8.036;2023-03-18T05:35:33;145029.13;;;7.47;100.00
28354;BME280;15603;50.878;8.036;2023-03-18T05:38:00;144938.19;;;7.08;100.00
28354;BME280;15603;50.878;8.036;2023-03-18T05:40:27;145009.69;;;7.39;100.00
28354;BME280;15603;50.878;8.036;2023-03-18T05:43:10;145036.38;;;7.50;100.00
28354;BME280;15603;50.878;8.036;2023-03-18T05:45:44;145052.16;;;7.57;100.00
28354;BME280;15603;50.878;8.036;2023-03-18T05:48:14;145008.50;;;7.38;100.00
28354;BME280;15603;50.878;8.036;2023-03-18T05:50:49;145002.44;;;7.36;100.00
28354;BME280;15603;50.878;8.036;2023-03-18T05:53:19;144987.91;;;7.30;100.00
28354;BME280;15603;50.878;8.036;2023-03-18T05:55:52;145014.53;;;7.41;100.00
28354;BME280;15603;50.878;8.036;2023-03-18T05:58:20;145029.13;;;7.47;100.00
28354;BME280;15603;50.878;8.036;2023-03-18T06:00:53;145015.78;;;7.41;100.00
28354;BME280;15603;50.878;8.036;2023-03-18T06:03:20;145014.53;;;7.41;100.00
28354;BME280;15603;50.878;8.036;2023-03-18T06:05:48;145023.03;;;7.44;100.00
28354;BME280;15603;50.878;8.036;2023-03-18T06:08:15;145049.72;;;7.56;100.00
28354;BME280;15603;50.878;8.036;2023-03-18T06:10:43;145053.38;;;7.57;100.00
28354;BME280;15603;50.878;8.036;2023-03-18T06:13:10;145041.22;;;7.52;100.00
28354;BME280;15603;50.878;8.036;2023-03-18T06:15:38;145066.72;;;7.63;100.00
28354;BME280;15603;50.878;8.036;2023-03-18T06:18:05;145041.22;;;7.52;100.00
28354;BME280;15603;50.878;8.036;2023-03-18T06:20:32;145038.81;;;7.51;100.00
28354;BME280;15603;50.878;8.036;2023-03-18T06:22:59;145048.53;;;7.55;100.00
28354;BME280;15603;50.878;8.036;2023-03-18T06:25:27;145041.22;;;7.52;100.00
28354;BME280;15603;50.878;8.036;2023-03-18T06:27:54;145055.81;;;7.58;100.00
28354;BME280;15603;50.878;8.036;2023-03-18T06:30:26;145080.06;;;7.69;100.00
28354;BME280;15603;50.878;8.036;2023-03-18T06:32:53;145105.50;;;7.79;100.00
28354;BME280;15603;50.878;8.036;2023-03-18T06:35:24;145101.91;;;7.78;100.00
28354;BME280;15603;50.878;8.036;2023-03-18T06:37:53;145055.81;;;7.58;100.00
28354;BME280;15603;50.878;8.036;2023-03-18T06:40:21;145140.69;;;7.94;100.00
28354;BME280;15603;50.878;8.036;2023-03-18T06:42:50;145165.00;;;8.04;100.00
28354;BME280;15603;50.878;8.036;2023-03-18T06:45:38;145162.53;;;8.03;100.00
28354;BME280;15603;50.878;8.036;2023-03-18T06:48:07;145186.78;;;8.14;100.00
28354;BME280;15603;50.878;8.036;2023-03-18T06:50:40;145225.66;;;8.30;100.00
28354;BME280;15603;50.878;8.036;2023-03-18T06:53:29;145249.91;;;8.40;100.00
28354;BME280;15603;50.878;8.036;2023-03-18T06:55:56;145243.84;;;8.38;100.00
28354;BME280;15603;50.878;8.036;2023-03-18T06:58:28;145258.44;;;8.44;100.00
28354;BME280;15603;50.878;8.036;2023-03-18T07:01:01;145281.50;;;8.54;100.00
28354;BME280;15603;50.878;8.036;2023-03-18T07:03:35;145317.91;;;8.69;100.00
28354;BME280;15603;50.878;8.036;2023-03-18T07:06:03;145283.97;;;8.55;100.00
28354;BME280;15603;50.878;8.036;2023-03-18T07:08:31;145325.22;;;8.72;100.00
28354;BME280;15603;50.878;8.036;2023-03-18T07:11:00;145401.72;;;9.04;100.00
28354;BME280;15603;50.878;8.036;2023-03-18T07:13:28;145378.59;;;8.95;100.00
28354;BME280;15603;50.878;8.036;2023-03-18T07:15:55;145444.19;;;9.22;100.00
28354;BME280;15603;50.878;8.036;2023-03-18T07:18:23;145481.81;;;9.38;100.00
28354;BME280;15603;50.878;8.036;2023-03-18T07:20:50;145509.75;;;9.50;100.00
28354;BME280;15603;50.878;8.036;2023-03-18T07:23:21;145546.19;;;9.66;100.00
28354;BME280;15603;50.878;8.036;2023-03-18T07:25:48;145534.06;;;9.60;100.00
28354;BME280;15603;50.878;8.036;2023-03-18T07:28:18;145614.22;;;9.94;100.00
28354;BME280;15603;50.878;8.036;2023-03-18T07:30:46;145638.56;;;10.05;100.00
28354;BME280;15603;50.878;8.036;2023-03-18T07:33:13;145654.31;;;10.11;100.00
28354;BME280;15603;50.878;8.036;2023-03-18T07:35:40;145679.84;;;10.22;100.00
28354;BME280;15603;50.878;8.036;2023-03-18T07:38:08;145730.94;;;10.44;100.00
28354;BME280;15603;50.878;8.036;2023-03-18T07:40:36;145760.09;;;10.56;100.00
28354;BME280;15603;50.878;8.036;2023-03-18T07:43:04;145794.16;;;10.70;100.00
28354;BME280;15603;50.878;8.036;2023-03-18T07:45:32;145824.50;;;10.83;100.00
28354;BME280;15603;50.878;8.036;2023-03-18T07:48:00;145850.06;;;10.94;100.00
28354;BME280;15603;50.878;8.036;2023-03-18T07:50:27;145858.56;;;10.97;100.00
28354;BME280;15603;50.878;8.036;2023-03-18T07:52:54;145873.16;;;11.04;100.00
28354;BME280;15603;50.878;8.036;2023-03-18T07:55:21;145884.06;;;11.08;100.00
28354;BME280;15603;50.878;8.036;2023-03-18T07:57:48;145920.56;;;11.24;100.00
28354;BME280;15603;50.878;8.036;2023-03-18T08:00:16;145932.72;;;11.29;100.00
28354;BME280;15603;50.878;8.036;2023-03-18T08:02:43;145970.41;;;11.45;100.00
28354;BME280;15603;50.878;8.036;2023-03-18T08:05:10;145997.19;;;11.56;100.00
28354;BME280;15603;50.878;8.036;2023-03-18T08:07:39;146021.50;;;11.66;100.00
28354;BME280;15603;50.878;8.036;2023-03-18T08:10:06;146033.66;;;11.71;100.00
28354;BME280;15603;50.878;8.036;2023-03-18T08:12:34;146072.63;;;11.88;100.00
28354;BME280;15603;50.878;8.036;2023-03-18T08:15:19;146105.50;;;12.02;100.00
28354;BME280;15603;50.878;8.036;2023-03-18T08:17:46;146107.91;;;12.03;100.00
28354;BME280;15603;50.878;8.036;2023-03-18T08:20:13;146068.97;;;11.86;100.00
28354;BME280;15603;50.878;8.036;2023-03-18T08:22:41;146120.09;;;12.08;100.00
28354;BME280;15603;50.878;8.036;2023-03-18T08:25:08;146140.81;;;12.16;100.00
28354;BME280;15603;50.878;8.036;2023-03-18T08:27:37;146156.59;;;12.23;100.00
28354;BME280;15603;50.878;8.036;2023-03-18T08:30:05;146159.06;;;12.24;100.00
28354;BME280;15603;50.878;8.036;2023-03-18T08:32:32;146146.88;;;12.19;100.00
28354;BME280;15603;50.878;8.036;2023-03-18T08:35:00;146183.38;;;12.34;100.00
28354;BME280;15603;50.878;8.036;2023-03-18T08:37:28;146202.84;;;12.43;100.00
28354;BME280;15603;50.878;8.036;2023-03-18T08:39:56;146222.28;;;12.51;100.00
28354;BME280;15603;50.878;8.036;2023-03-18T08:42:24;146144.41;;;12.18;100.00
28354;BME280;15603;50.878;8.036;2023-03-18T08:44:51;146244.22;;;12.60;100.00
28354;BME280;15603;50.878;8.036;2023-03-18T08:47:18;146234.47;;;12.56;100.00
28354;BME280;15603;50.878;8.036;2023-03-18T08:49:45;146243.00;;;12.60;99.79
28354;BME280;15603;50.878;8.036;2023-03-18T08:52:12;146294.13;;;12.81;99.84
28354;BME280;15603;50.878;8.036;2023-03-18T08:54:40;146258.81;;;12.66;100.00
28354;BME280;15603;50.878;8.036;2023-03-18T08:57:07;146356.22;;;13.07;99.44
28354;BME280;15603;50.878;8.036;2023-03-18T08:59:35;146369.63;;;13.13;98.43
28354;BME280;15603;50.878;8.036;2023-03-18T09:02:02;146344.03;;;13.02;99.27
28354;BME280;15603;50.878;8.036;2023-03-18T09:04:29;146367.16;;;13.12;98.17
28354;BME280;15603;50.878;8.036;2023-03-18T09:06:56;146358.63;;;13.08;99.84
28354;BME280;15603;50.878;8.036;2023-03-18T09:09:23;146350.13;;;13.05;98.37
28354;BME280;15603;50.878;8.036;2023-03-18T09:12:08;146384.22;;;13.19;97.33
28354;BME280;15603;50.878;8.036;2023-03-18T09:14:37;146404.91;;;13.28;99.12
28354;BME280;15603;50.878;8.036;2023-03-18T09:17:06;146431.75;;;13.39;98.30
28354;BME280;15603;50.878;8.036;2023-03-18T09:19:33;146482.94;;;13.61;96.77
28354;BME280;15603;50.878;8.036;2023-03-18T09:22:01;146473.16;;;13.57;95.58
28354;BME280;15603;50.878;8.036;2023-03-18T09:24:28;146514.56;;;13.74;94.68
28354;BME280;15603;50.878;8.036;2023-03-18T09:26:55;146492.66;;;13.65;93.98
28354;BME280;15603;50.878;8.036;2023-03-18T09:29:22;146497.53;;;13.67;94.03
28354;BME280;15603;50.878;8.036;2023-03-18T09:31:49;146503.63;;;13.69;95.32
28354;BME280;15603;50.878;8.036;2023-03-18T09:34:16;146524.34;;;13.78;94.06
28354;BME280;15603;50.878;8.036;2023-03-18T09:36:43;146487.81;;;13.63;94.08
28354;BME280;15603;50.878;8.036;2023-03-18T09:39:18;146465.88;;;13.53;94.64
28354;BME280;15603;50.878;8.036;2023-03-18T09:44:39;146412.28;;;13.31;94.35
28354;BME280;15603;50.878;8.036;2023-03-18T09:52:42;146465.88;;;13.53;94.44
28354;BME280;15603;50.878;8.036;2023-03-18T09:55:24;146549.91;;;13.89;93.22
28354;BME280;15603;50.878;8.036;2023-03-18T09:57:56;146634.00;;;14.24;91.68
28354;BME280;15603;50.878;8.036;2023-03-18T10:00:33;146624.19;;;14.20;94.15
28354;BME280;15603;50.878;8.036;2023-03-18T10:03:11;146707.09;;;14.55;91.89
28354;BME280;15603;50.878;8.036;2023-03-18T10:05:49;146792.44;;;14.91;89.57
28354;BME280;15603;50.878;8.036;2023-03-18T10:11:15;146766.88;;;14.80;88.63
28354;BME280;15603;50.878;8.036;2023-03-18T10:13:53;146753.47;;;14.75;87.33
28354;BME280;15603;50.878;8.036;2023-03-18T10:16:26;146838.75;;;15.10;86.33
28354;BME280;15603;50.878;8.036;2023-03-18T10:18:55;146791.22;;;14.90;84.62
28354;BME280;15603;50.878;8.036;2023-03-18T10:21:38;146776.63;;;14.84;86.67
28354;BME280;15603;50.878;8.036;2023-03-18T10:30:18;146897.28;;;15.35;86.91
28354;BME280;15603;50.878;8.036;2023-03-18T10:33:09;146850.97;;;15.16;82.89
28354;BME280;15603;50.878;8.036;2023-03-18T10:35:41;146829.00;;;15.06;82.80
28354;BME280;15603;50.878;8.036;2023-03-18T10:38:42;146842.44;;;15.12;82.98
28354;BME280;15603;50.878;8.036;2023-03-18T10:41:32;146904.63;;;15.38;80.53
28354;BME280;15603;50.878;8.036;2023-03-18T10:44:12;146947.28;;;15.56;82.91
28354;BME280;15603;50.878;8.036;2023-03-18T10:46:43;146970.47;;;15.66;79.31
28354;BME280;15603;50.878;8.036;2023-03-18T10:49:17;146985.09;;;15.72;81.47
28354;BME280;15603;50.878;8.036;2023-03-18T10:57:04;146993.69;;;15.76;75.91
28354;BME280;15603;50.878;8.036;2023-03-18T10:59:32;147009.56;;;15.82;77.10
28354;BME280;15603;50.878;8.036;2023-03-18T11:02:11;146946.09;;;15.56;78.90
28354;BME280;15603;50.878;8.036;2023-03-18T11:04:52;147026.59;;;15.89;73.39
28354;BME280;15603;50.878;8.036;2023-03-18T11:07:24;147058.31;;;16.03;72.90
28354;BME280;15603;50.878;8.036;2023-03-18T11:09:53;147016.84;;;15.85;75.21
28354;BME280;15603;50.878;8.036;2023-03-18T11:12:26;147081.50;;;16.13;73.99
28354;BME280;15603;50.878;8.036;2023-03-18T11:14:54;147126.66;;;16.32;75.70
28354;BME280;15603;50.878;8.036;2023-03-18T11:17:31;147212.06;;;16.67;72.80
28354;BME280;15603;50.878;8.036;2023-03-18T11:20:19;147221.84;;;16.72;71.61
28354;BME280;15603;50.878;8.036;2023-03-18T11:22:49;147256.06;;;16.86;72.10
28354;BME280;15603;50.878;8.036;2023-03-18T11:25:23;147278.00;;;16.95;68.69
28354;BME280;15603;50.878;8.036;2023-03-18T11:27:58;147182.81;;;16.55;66.68
28354;BME280;15603;50.878;8.036;2023-03-18T11:30:30;147204.72;;;16.64;65.91
28354;BME280;15603;50.878;8.036;2023-03-18T11:33:15;147204.72;;;16.64;66.48
28354;BME280;15603;50.878;8.036;2023-03-18T11:35:50;147248.75;;;16.83;68.27
28354;BME280;15603;50.878;8.036;2023-03-18T11:38:31;147265.84;;;16.90;66.33
28354;BME280;15603;50.878;8.036;2023-03-18T11:43:35;147204.72;;;16.64;71.79
28354;BME280;15603;50.878;8.036;2023-03-18T11:46:05;147204.72;;;16.64;66.08
28354;BME280;15603;50.878;8.036;2023-03-18T11:48:36;147146.19;;;16.40;66.16
28354;BME280;15603;50.878;8.036;2023-03-18T11:56:59;147324.41;;;17.15;68.03
28354;BME280;15603;50.878;8.036;2023-03-18T12:08:37;147313.44;;;17.10;62.64
28354;BME280;15603;50.878;8.036;2023-03-18T12:13:58;147304.88;;;17.06;61.56
28354;BME280;15603;50.878;8.036;2023-03-18T12:19:49;147412.34;;;17.52;59.73
28354;BME280;15603;50.878;8.036;2023-03-18T12:22:42;147522.28;;;17.98;62.76
28354;BME280;15603;50.878;8.036;2023-03-18T12:31:27;147602.88;;;18.32;59.90
28354;BME280;15603;50.878;8.036;2023-03-18T12:34:00;147593.13;;;18.28;60.29
28354;BME280;15603;50.878;8.036;2023-03-18T12:42:22;147594.31;;;18.28;58.83
28354;BME280;15603;50.878;8.036;2023-03-18T12:44:57;147546.69;;;18.08;59.17
28354;BME280;15603;50.878;8.036;2023-03-18T12:47:33;147574.78;;;18.20;57.84
28354;BME280;15603;50.878;8.036;2023-03-18T12:52:55;147621.22;;;18.39;56.66
28354;BME280;15603;50.878;8.036;2023-03-18T12:55:29;147607.75;;;18.34;56.20
28354;BME280;15603;50.878;8.036;2023-03-18T12:58:07;147600.47;;;18.31;55.26
28354;BME280;15603;50.878;8.036;2023-03-18T13:03:37;147523.50;;;17.98;57.22
28354;BME280;15603;50.878;8.036;2023-03-18T13:06:50;147500.28;;;17.89;58.32
28354;BME280;15603;50.878;8.036;2023-03-18T13:09:36;147529.59;;;18.01;59.94
28354;BME280;15603;50.878;8.036;2023-03-18T13:15:05;147568.69;;;18.17;60.33
28354;BME280;15603;50.878;8.036;2023-03-18T13:17:40;147617.53;;;18.38;59.67
28354;BME280;15603;50.878;8.036;2023-03-18T13:20:15;147624.88;;;18.41;59.33
28354;BME280;15603;50.878;8.036;2023-03-18T13:28:21;147630.97;;;18.43;58.84
28354;BME280;15603;50.878;8.036;2023-03-18T13:34:15;147568.69;;;18.17;59.25
28354;BME280;15603;50.878;8.036;2023-03-18T13:45:15;147602.88;;;18.32;58.33
28354;BME280;15603;50.878;8.036;2023-03-18T13:47:55;147604.13;;;18.32;59.03
28354;BME280;15603;50.878;8.036;2023-03-18T13:50:36;147580.88;;;18.22;56.30
28354;BME280;15603;50.878;8.036;2023-03-18T13:53:39;147566.25;;;18.16;56.97
28354;BME280;15603;50.878;8.036;2023-03-18T13:56:26;147436.75;;;17.62;59.04
28354;BME280;15603;50.878;8.036;2023-03-18T13:58:54;147392.75;;;17.43;60.50
28354;BME280;15603;50.878;8.036;2023-03-18T14:01:30;147389.13;;;17.42;62.01
28354;BME280;15603;50.878;8.036;2023-03-18T14:04:03;147357.38;;;17.29;62.70
28354;BME280;15603;50.878;8.036;2023-03-18T14:09:45;147281.69;;;16.97;66.38
28354;BME280;15603;50.878;8.036;2023-03-18T14:17:16;147193.78;;;16.60;67.66
28354;BME280;15603;50.878;8.036;2023-03-18T14:19:44;147199.84;;;16.62;68.07
28354;BME280;15603;50.878;8.036;2023-03-18T14:22:26;147198.66;;;16.62;65.92
28354;BME280;15603;50.878;8.036;2023-03-18T14:27:58;147238.94;;;16.79;66.93
28354;BME280;15603;50.878;8.036;2023-03-18T14:32:57;147162.03;;;16.46;69.94
28354;BME280;15603;50.878;8.036;2023-03-18T14:35:50;147112.00;;;16.25;83.97
28354;BME280;15603;50.878;8.036;2023-03-18T14:40:48;146847.31;;;15.14;95.33
28354;BME280;15603;50.878;8.036;2023-03-18T14:43:37;146849.75;;;15.15;97.98
28354;BME280;15603;50.878;8.036;2023-03-18T14:46:15;146860.72;;;15.20;100.00
28354;BME280;15603;50.878;8.036;2023-03-18T14:48:43;146865.59;;;15.22;100.00
28354;BME280;15603;50.878;8.036;2023-03-18T14:51:16;146877.78;;;15.27;100.00
28354;BME280;15603;50.878;8.036;2023-03-18T14:53:54;146902.16;;;15.37;100.00
28354;BME280;15603;50.878;8.036;2023-03-18T14:56:29;146819.25;;;15.02;100.00
28354;BME280;15603;50.878;8.036;2023-03-18T14:58:56;146855.84;;;15.18;99.86
28354;BME280;15603;50.878;8.036;2023-03-18T15:01:38;146860.72;;;15.20;99.78